Olomouc, Czech Republic
Current Conditions -  °F | °C
As of 12:30 AM on Sunday 21 Dec 2014 (Local Time) from LKMT Reporting Station
Scattered Clouds Scattered Clouds  
Wind Chill: 27°   Ceiling: Unl
Heat Index: 37°   Visibility: 6mi
Dew Point: 32°   Wind: 18mph
Humidity: 81%   Direction: 230°SW
Pressure: 29.94"   Gusts: NA
Location:  49.61°N, 17.25°E
Report Text: LKMT 202330Z 23016KT 9999 SCT027 03/00 Q1014 NOSIG
Loading
Personal Weather Stations






























Interactive Weather Map New forecast layout! Learn more

10-Day Weather Forecast

Advertisements
Track Severe Weather on mobile